Terminal Aerodrome Forecast
Issued by NWS North Platte, NE

Home | Current Version | Previous Version | Graphics & Text | Print | Product List | Glossary On
Versions: 1 2 3 4 5 6 7 8 9 10 11 12 13 14 15 16 17 18 19 20 21
000
FTUS43 KLBF 281400 AAC
TAFVTN
TAF AMD
KVTN 281427Z 2814/2912 VRB05KT P6SM SCT007 OVC014
      TEMPO 2814/2816 BKN007
     FM281600 36008KT P6SM SCT015 OVC050
      TEMPO 2818/2822 -SHRA OVC050
     FM282200 03007KT P6SM OVC050
     FM290200 VRB06KT P6SM BKN250=

USA.gov is the U.S. government's official web portal to all federal, state and local government web resources and services.